Terminal Aerodrome Forecast
Issued by NWS

Current Version | Previous Version | Text Only | Print | Product List | Glossary Off
Versions: 1 2 3 4 5 6 7 8 9 10 11 12 13 14 15 16 17 18 19

019
FTUS41 KPBZ 101140
TAFHLG
TAF
KHLG 101140Z 1012/1112 28010KT P6SM OVC015
     FM101400 28012G20KT P6SM OVC035
     FM102000 24012G20KT P6SM BKN060
     FM110300 24012KT P6SM BKN025
     FM110800 27012KT P6SM OVC015=

USA.gov is the U.S. government's official web portal to all federal, state and local government web resources and services.